createdAt,value
2019-04-10T00:00:59.273Z,41.33
2019-04-10T00:03:34.106Z,52.30
2019-04-10T00:06:04.681Z,55.73
2019-04-10T00:08:36.679Z,50.60
2019-04-10T00:11:08.642Z,50.33
2019-04-10T00:13:40.851Z,52.20
2019-04-10T00:16:12.442Z,52.77
2019-04-10T00:18:44.347Z,59.93
2019-04-10T00:21:17.443Z,57.53
2019-04-10T00:23:49.434Z,58.60
2019-04-10T00:26:21.663Z,58.47
2019-04-10T00:28:53.913Z,59.93
2019-04-10T00:31:26.349Z,54.67
2019-04-10T00:33:58.976Z,57.87
2019-04-10T00:36:30.601Z,61.20
2019-04-10T00:39:02.407Z,65.93
2019-04-10T00:41:34.448Z,60.03
2019-04-10T00:44:06.184Z,67.40
2019-04-10T00:46:38.049Z,61.20
2019-04-10T00:49:09.782Z,58.80
2019-04-10T00:51:41.655Z,60.83
2019-04-10T00:54:14.589Z,63.73
2019-04-10T00:56:46.370Z,65.03
2019-04-10T00:59:18.017Z,71.20
2019-04-10T01:01:49.643Z,65.30
2019-04-10T01:04:22.819Z,63.63
2019-04-10T01:06:54.603Z,69.83
2019-04-10T01:09:27.063Z,68.05
2019-04-10T01:11:59.374Z,64.07
2019-04-10T01:14:31.809Z,63.38
2019-04-10T01:17:04.080Z,70.37
2019-04-10T01:19:36.346Z,62.33
2019-04-10T01:22:08.701Z,62.23
2019-04-10T01:24:40.475Z,63.30
2019-04-10T01:27:12.144Z,61.10
2019-04-10T01:29:44.133Z,64.90
2019-04-10T01:32:15.811Z,57.00
2019-04-10T01:34:47.617Z,66.50
2019-04-10T01:37:19.473Z,63.07
2019-04-10T01:39:52.743Z,64.53
2019-04-10T01:42:24.869Z,62.03
2019-04-10T01:44:57.326Z,59.80
2019-04-10T01:47:29.136Z,57.98
2019-04-10T01:50:02.302Z,62.43
2019-04-10T01:52:35.064Z,67.00
2019-04-10T01:55:17.265Z,64.57
2019-04-10T01:57:41.756Z,59.10
2019-04-10T02:00:17.206Z,66.90
2019-04-10T02:02:53.798Z,64.53
2019-04-10T02:05:25.870Z,60.20
2019-04-10T02:08:05.266Z,62.53
2019-04-10T02:10:32.085Z,66.70
2019-04-10T02:13:03.796Z,66.57
2019-04-10T02:15:36.348Z,68.87
2019-04-10T02:18:08.865Z,71.22
2019-04-10T02:20:40.513Z,64.33
2019-04-10T02:23:12.275Z,59.30
2019-04-10T02:25:45.131Z,58.53
2019-04-10T02:28:16.815Z,64.93
2019-04-10T02:30:50.113Z,64.47
2019-04-10T02:33:23.250Z,64.73
2019-04-10T02:35:55.006Z,73.80
2019-04-10T02:38:43.077Z,66.57
2019-04-10T02:41:01.543Z,68.47
2019-04-10T02:43:33.651Z,65.37
2019-04-10T02:46:06.449Z,65.60
2019-04-10T02:48:39.423Z,69.63
2019-04-10T02:51:11.415Z,71.40
2019-04-10T02:53:43.806Z,67.10
2019-04-10T02:56:15.984Z,57.97
2019-04-10T02:58:49.166Z,60.67
2019-04-10T03:01:21.026Z,60.27
2019-04-10T03:03:54.813Z,58.83
2019-04-10T03:06:27.278Z,70.17
2019-04-10T03:09:14.654Z,68.73
2019-04-10T03:11:33.046Z,68.20
2019-04-10T03:14:05.730Z,66.60
2019-04-10T03:16:37.594Z,72.37
2019-04-10T03:19:09.523Z,69.22
2019-04-10T03:21:41.159Z,69.23
2019-04-10T03:24:13.685Z,69.07
2019-04-10T03:26:46.373Z,65.07
2019-04-10T03:29:18.632Z,65.77
2019-04-10T03:31:52.266Z,69.60
2019-04-10T03:34:28.405Z,59.97
2019-04-10T03:37:00.001Z,68.30
2019-04-10T03:39:34.789Z,64.73
2019-04-10T03:42:06.524Z,65.07
2019-04-10T03:44:38.890Z,69.72
2019-04-10T03:47:11.287Z,72.40
2019-04-10T03:49:42.978Z,71.37
2019-04-10T03:52:14.671Z,73.47
2019-04-10T03:54:46.347Z,65.07
2019-04-10T03:57:18.427Z,71.30
2019-04-10T03:59:50.313Z,75.23
2019-04-10T04:02:22.055Z,67.07
2019-04-10T04:04:53.839Z,65.90
2019-04-10T04:07:26.987Z,59.23
2019-04-10T04:09:58.952Z,66.57
2019-04-10T04:12:31.073Z,62.57
2019-04-10T04:15:03.639Z,66.33
2019-04-10T04:17:36.019Z,65.77
2019-04-10T04:20:08.122Z,63.73
2019-04-10T04:22:39.808Z,68.50
2019-04-10T04:25:12.729Z,65.37
2019-04-10T04:27:44.473Z,74.90
2019-04-10T04:30:17.086Z,66.20
2019-04-10T04:32:48.665Z,62.00
2019-04-10T04:35:20.309Z,66.70
2019-04-10T04:37:52.635Z,60.83
2019-04-10T04:40:24.426Z,85.93
2019-04-10T04:42:56.058Z,89.40
2019-04-10T04:45:27.906Z,101.20
2019-04-10T04:47:59.810Z,83.35
2019-04-10T04:50:31.431Z,80.10
2019-04-10T04:53:04.252Z,82.83
2019-04-10T04:55:36.109Z,86.27
2019-04-10T04:58:07.822Z,67.83
2019-04-10T05:00:39.685Z,77.08
2019-04-10T05:03:12.019Z,70.67
2019-04-10T05:05:43.851Z,77.17
2019-04-10T05:08:15.479Z,68.50
2019-04-10T05:10:48.001Z,74.20
2019-04-10T05:13:19.643Z,73.23
2019-04-10T05:15:51.667Z,71.67
2019-04-10T05:18:23.371Z,70.87
2019-04-10T05:20:55.005Z,74.87
2019-04-10T05:23:26.657Z,75.67
2019-04-10T05:25:59.161Z,64.60
2019-04-10T05:28:32.658Z,63.73
2019-04-10T05:31:04.866Z,62.77
2019-04-10T05:33:36.821Z,68.37
2019-04-10T05:36:08.946Z,62.60
2019-04-10T05:38:41.857Z,68.95
2019-04-10T05:41:13.811Z,73.70
2019-04-10T05:43:45.511Z,71.40
2019-04-10T05:46:17.184Z,69.63
2019-04-10T05:48:49.159Z,72.03
2019-04-10T05:51:21.328Z,68.40
2019-04-10T05:53:55.307Z,70.97
2019-04-10T05:56:26.415Z,66.20
2019-04-10T05:58:58.658Z,79.20
2019-04-10T06:01:35.508Z,68.60
2019-04-10T06:04:03.804Z,68.90
2019-04-10T06:06:36.431Z,67.17
2019-04-10T06:09:09.826Z,67.05
2019-04-10T06:11:43.843Z,70.03
2019-04-10T06:14:15.780Z,69.00
2019-04-10T06:16:47.525Z,71.60
2019-04-10T06:19:19.986Z,73.47
2019-04-10T06:21:52.428Z,64.37
2019-04-10T06:24:24.516Z,71.40
2019-04-10T06:26:56.517Z,66.13
2019-04-10T06:29:28.825Z,65.00
2019-04-10T06:32:01.117Z,62.93
2019-04-10T06:34:34.182Z,58.77
2019-04-10T06:37:06.179Z,70.90
2019-04-10T06:39:38.596Z,61.70
2019-04-10T06:42:10.262Z,60.37
2019-04-10T06:44:42.029Z,62.30
2019-04-10T06:47:13.893Z,61.30
2019-04-10T06:49:46.047Z,61.27
2019-04-10T06:52:18.573Z,67.90
2019-04-10T06:54:51.105Z,57.93
2019-04-10T06:57:23.044Z,58.83
2019-04-10T06:59:54.991Z,71.30
2019-04-10T07:02:29.540Z,56.77
2019-04-10T07:05:05.876Z,51.87
2019-04-10T07:07:47.547Z,54.10
2019-04-10T07:10:22.607Z,55.40
2019-04-10T07:12:46.181Z,49.43
2019-04-10T07:15:21.135Z,49.97
2019-04-10T07:17:51.898Z,49.30
2019-04-10T07:20:24.085Z,48.10
2019-04-10T07:22:57.024Z,44.17
2019-04-10T07:25:29.894Z,45.77
2019-04-10T07:28:02.766Z,50.00
2019-04-10T07:30:35.973Z,42.63
2019-04-10T07:33:08.004Z,45.33
2019-04-10T07:35:40.500Z,41.88
2019-04-10T07:38:12.155Z,43.80
2019-04-10T07:40:46.962Z,42.30
2019-04-10T07:43:20.738Z,41.67
2019-04-10T07:45:50.944Z,43.53
2019-04-10T07:48:23.100Z,41.43
2019-04-10T07:50:55.810Z,38.83
2019-04-10T07:53:28.096Z,41.63
2019-04-10T07:56:06.462Z,37.80
2019-04-10T07:58:35.496Z,41.30
2019-04-10T08:01:07.902Z,35.60
2019-04-10T08:03:39.801Z,39.83
2019-04-10T08:06:11.689Z,39.57
2019-04-10T08:08:43.333Z,38.73
2019-04-10T08:11:15.503Z,41.60
2019-04-10T08:13:47.526Z,39.63
2019-04-10T08:16:19.166Z,37.27
2019-04-10T08:18:52.138Z,34.37
2019-04-10T08:21:23.963Z,36.60
2019-04-10T08:23:55.692Z,38.70
2019-04-10T08:26:28.171Z,37.93
2019-04-10T08:29:01.974Z,37.23
2019-04-10T08:31:34.120Z,37.90
2019-04-10T08:34:06.675Z,33.07
2019-04-10T08:36:39.502Z,34.87
2019-04-10T08:39:11.452Z,30.83
2019-04-10T08:41:43.764Z,33.60
2019-04-10T08:44:15.705Z,29.90
2019-04-10T08:46:48.294Z,37.20
2019-04-10T08:49:21.339Z,30.43
2019-04-10T08:51:53.346Z,30.20
2019-04-10T08:54:25.891Z,27.00
2019-04-10T08:56:57.966Z,26.77
2019-04-10T08:59:30.045Z,30.43
2019-04-10T09:02:02.025Z,30.93
2019-04-10T09:04:33.875Z,28.13
2019-04-10T09:07:06.796Z,28.80
2019-04-10T09:09:40.257Z,30.40
2019-04-10T09:12:11.945Z,34.60
2019-04-10T09:14:43.987Z,26.75
2019-04-10T09:17:15.646Z,27.27
2019-04-10T09:19:47.412Z,25.30
2019-04-10T09:22:19.109Z,29.90
2019-04-10T09:24:50.843Z,29.43
2019-04-10T09:27:22.556Z,27.20
2019-04-10T09:29:54.764Z,25.07
2019-04-10T09:32:26.597Z,26.77
2019-04-10T09:34:58.310Z,24.30
2019-04-10T09:37:31.175Z,28.17
2019-04-10T09:40:03.681Z,24.07
2019-04-10T09:42:35.453Z,24.17
2019-04-10T09:45:07.796Z,28.97
2019-04-10T09:47:39.623Z,24.97
2019-04-10T09:50:11.707Z,24.53
2019-04-10T09:52:44.035Z,30.60
2019-04-10T09:55:16.021Z,26.07
2019-04-10T09:57:48.101Z,23.50
2019-04-10T10:00:21.367Z,21.90
2019-04-10T10:02:53.082Z,24.40
2019-04-10T10:05:24.794Z,24.10
2019-04-10T10:07:56.713Z,28.40
2019-04-10T10:10:29.038Z,21.90
2019-04-10T10:13:01.272Z,22.90
2019-04-10T10:15:33.589Z,23.87
2019-04-10T10:18:05.515Z,23.63
2019-04-10T10:20:39.874Z,26.37
2019-04-10T10:23:11.762Z,24.17
2019-04-10T10:25:43.772Z,25.17
2019-04-10T10:28:15.788Z,30.53
2019-04-10T10:30:48.127Z,28.93
2019-04-10T10:33:20.164Z,24.40
2019-04-10T10:35:52.157Z,22.97
2019-04-10T10:38:23.856Z,24.97
2019-04-10T10:40:55.575Z,22.63
2019-04-10T10:43:28.693Z,24.10
2019-04-10T10:46:00.993Z,22.10
2019-04-10T10:48:32.724Z,29.20
2019-04-10T10:51:04.636Z,24.33
2019-04-10T10:53:36.487Z,21.60
2019-04-10T10:56:08.261Z,29.37
2019-04-10T10:58:39.963Z,24.80
2019-04-10T11:01:11.653Z,22.90
2019-04-10T11:03:44.575Z,19.07
2019-04-10T11:06:17.734Z,27.73
2019-04-10T11:08:49.499Z,18.60
2019-04-10T11:11:22.614Z,22.07
2019-04-10T11:13:55.106Z,23.27
2019-04-10T11:16:27.433Z,22.90
2019-04-10T11:18:59.701Z,19.12
2019-04-10T11:21:32.461Z,18.83
2019-04-10T11:24:04.712Z,20.73
2019-04-10T11:26:37.581Z,18.27
2019-04-10T11:29:10.001Z,21.80
2019-04-10T11:31:42.197Z,22.10
2019-04-10T11:34:14.194Z,18.57
2019-04-10T11:36:45.939Z,20.63
2019-04-10T11:39:23.338Z,20.77
2019-04-10T11:41:52.679Z,23.67
2019-04-10T11:44:24.896Z,20.47
2019-04-10T11:46:58.718Z,22.93
2019-04-10T11:49:31.610Z,19.03
2019-04-10T11:52:06.259Z,20.90
2019-04-10T11:54:41.273Z,26.50
2019-04-10T11:57:13.201Z,26.43
2019-04-10T11:59:47.381Z,23.20
2019-04-10T12:02:21.840Z,23.07
2019-04-10T12:04:55.697Z,24.67
2019-04-10T12:12:33.401Z,24.27
2019-04-10T12:15:06.337Z,23.20
2019-04-10T12:17:38.239Z,22.33
2019-04-10T12:20:11.190Z,21.17
2019-04-10T12:22:43.908Z,20.97
2019-04-10T12:25:16.691Z,20.27
2019-04-10T12:27:49.411Z,22.57
2019-04-10T12:30:21.771Z,19.37
2019-04-10T12:32:53.495Z,22.57
2019-04-10T12:35:25.898Z,22.53
2019-04-10T12:38:02.680Z,23.70
2019-04-10T12:40:31.097Z,20.93
2019-04-10T12:43:02.951Z,24.60
2019-04-10T12:45:34.713Z,20.30
2019-04-10T12:48:06.601Z,19.60
2019-04-10T12:50:39.118Z,21.03
2019-04-10T12:53:11.621Z,20.87
2019-04-10T12:55:43.837Z,21.57
2019-04-10T12:58:17.542Z,22.83
2019-04-10T13:00:50.494Z,19.70
2019-04-10T13:03:23.069Z,20.40
2019-04-10T13:05:55.670Z,21.50
2019-04-10T13:08:47.347Z,24.23
2019-04-10T13:11:01.134Z,19.50
2019-04-10T13:13:33.851Z,17.70
2019-04-10T13:16:05.734Z,21.87
2019-04-10T13:18:38.536Z,21.13
2019-04-10T13:21:10.533Z,18.30
2019-04-10T13:23:42.220Z,18.50
2019-04-10T13:26:13.898Z,18.52
2019-04-10T13:28:45.727Z,12.90
2019-04-10T13:31:17.732Z,13.73
2019-04-10T13:33:49.678Z,14.13
2019-04-10T13:36:21.779Z,19.50
2019-04-10T13:38:54.797Z,16.07
2019-04-10T13:41:26.443Z,14.67
2019-04-10T13:43:58.538Z,14.73
2019-04-10T13:46:31.017Z,15.33
2019-04-10T13:49:03.740Z,15.80
2019-04-10T13:51:37.277Z,21.10
2019-04-10T13:54:10.329Z,18.00
2019-04-10T13:56:42.065Z,15.40
2019-04-10T13:59:15.222Z,24.60
2019-04-10T14:01:48.109Z,18.30
2019-04-10T14:04:19.981Z,27.20
2019-04-10T14:06:51.864Z,18.87
2019-04-10T14:09:34.771Z,15.43
2019-04-10T14:11:57.550Z,14.90
2019-04-10T14:14:29.513Z,19.23
2019-04-10T14:17:04.112Z,23.17
2019-04-10T14:19:35.233Z,18.48
2019-04-10T14:22:07.200Z,18.87
2019-04-10T14:24:44.180Z,19.20
2019-04-10T14:27:16.072Z,27.55
2019-04-10T14:29:48.959Z,24.80
2019-04-10T14:32:35.717Z,26.03
2019-04-10T14:35:09.969Z,21.80
2019-04-10T14:37:41.758Z,20.47
2019-04-10T14:40:13.923Z,16.40
2019-04-10T14:42:45.952Z,18.73
2019-04-10T14:45:17.958Z,17.40
2019-04-10T14:47:50.365Z,15.38
2019-04-10T14:50:29.479Z,15.07
2019-04-10T14:53:01.493Z,15.32
2019-04-10T14:55:33.484Z,17.10
2019-04-10T14:58:07.492Z,17.40
2019-04-10T15:00:49.700Z,17.17
2019-04-10T15:03:22.854Z,11.10
2019-04-10T15:05:56.782Z,9.10
2019-04-10T15:08:28.016Z,12.10
2019-04-10T15:11:00.327Z,12.40
2019-04-10T15:13:32.134Z,18.80
2019-04-10T15:16:04.943Z,12.20
2019-04-10T15:18:37.182Z,14.27
2019-04-10T15:21:08.913Z,12.90
2019-04-10T15:23:40.637Z,14.60
2019-04-10T15:26:14.267Z,13.30
2019-04-10T15:28:46.096Z,15.10
2019-04-10T15:31:19.390Z,16.13
2019-04-10T15:33:51.800Z,21.27
2019-04-10T15:36:25.029Z,14.47
2019-04-10T15:38:58.193Z,15.83
2019-04-10T15:41:30.755Z,11.70
2019-04-10T15:44:04.189Z,14.38
2019-04-10T15:46:35.967Z,12.23
2019-04-10T15:49:07.653Z,11.33
2019-04-10T15:51:39.445Z,13.70
2019-04-10T15:54:11.781Z,13.67
2019-04-10T15:56:44.417Z,14.63
2019-04-10T15:59:16.447Z,17.07
2019-04-10T16:01:48.963Z,18.30
2019-04-10T16:04:21.174Z,16.20
2019-04-10T16:06:53.723Z,15.40
2019-04-10T16:09:27.285Z,16.97
2019-04-10T16:12:06.301Z,16.63
2019-04-10T16:14:38.101Z,18.03
2019-04-10T16:17:36.135Z,17.57
2019-04-10T16:20:25.145Z,21.20
2019-04-10T16:23:18.500Z,18.47
2019-04-10T16:25:52.414Z,16.87
2019-04-10T16:28:24.614Z,16.60
2019-04-10T16:30:57.225Z,14.83
2019-04-10T16:33:29.472Z,17.70
2019-04-10T16:36:01.116Z,15.87
2019-04-10T16:38:33.103Z,15.27
2019-04-10T16:41:04.844Z,18.43
2019-04-10T16:43:36.529Z,16.00
2019-04-10T16:46:08.538Z,21.43
2019-04-10T16:48:40.448Z,14.93
2019-04-10T16:51:12.295Z,20.10
2019-04-10T16:53:44.166Z,17.77
2019-04-10T16:56:16.201Z,17.37
2019-04-10T16:58:48.124Z,17.80
2019-04-10T17:01:20.508Z,14.77
2019-04-10T17:03:52.528Z,15.53
2019-04-10T17:06:24.293Z,15.67
2019-04-10T17:08:56.427Z,16.40
2019-04-10T17:11:29.145Z,14.37
2019-04-10T17:14:02.746Z,14.77
2019-04-10T17:16:34.564Z,17.70
2019-04-10T17:19:07.614Z,17.80
2019-04-10T17:21:40.661Z,15.67
2019-04-10T17:24:13.388Z,15.23
2019-04-10T17:26:45.214Z,16.23
2019-04-10T17:29:17.061Z,16.37
2019-04-10T17:31:49.159Z,17.40
2019-04-10T17:34:20.869Z,15.80
2019-04-10T17:36:53.550Z,16.60
2019-04-10T17:39:25.242Z,12.43
2019-04-10T17:41:57.825Z,14.13
2019-04-10T17:44:29.860Z,16.87
2019-04-10T17:47:01.966Z,16.70
2019-04-10T17:49:33.957Z,15.37
2019-04-10T17:52:06.315Z,13.72
2019-04-10T17:54:38.718Z,16.40
2019-04-10T17:57:10.775Z,16.60
2019-04-10T17:59:42.815Z,17.07
2019-04-10T18:02:15.732Z,16.40
2019-04-10T18:04:48.318Z,15.27
2019-04-10T18:07:21.714Z,18.87
2019-04-10T18:09:53.436Z,16.27
2019-04-10T18:12:25.317Z,16.63
2019-04-10T18:14:57.630Z,24.53
2019-04-10T18:17:29.459Z,16.30
2019-04-10T18:20:01.180Z,14.87
2019-04-10T18:22:34.322Z,15.87
2019-04-10T18:25:06.643Z,19.93
2019-04-10T18:27:38.696Z,17.03
2019-04-10T18:30:11.000Z,23.70
2019-04-10T18:32:43.910Z,16.73
2019-04-10T18:35:16.401Z,25.07
2019-04-10T18:37:49.102Z,22.50
2019-04-10T18:40:21.188Z,21.97
2019-04-10T18:42:55.850Z,19.07
2019-04-10T18:45:26.611Z,21.40
2019-04-10T18:47:58.543Z,22.07
2019-04-10T18:50:30.389Z,16.27
2019-04-10T18:53:02.280Z,17.37
2019-04-10T18:55:34.038Z,16.73
2019-04-10T18:58:09.505Z,16.80
2019-04-10T19:00:54.952Z,15.67
2019-04-10T19:03:50.162Z,16.23
2019-04-10T19:06:22.516Z,16.30
2019-04-10T19:09:07.456Z,15.40
2019-04-10T19:11:33.280Z,17.40
2019-04-10T19:14:02.095Z,21.43
2019-04-10T19:16:35.163Z,17.47
2019-04-10T19:19:08.099Z,16.57
2019-04-10T19:21:40.106Z,17.73
2019-04-10T19:24:12.302Z,17.55
2019-04-10T19:26:45.354Z,16.40
2019-04-10T19:29:17.699Z,13.68
2019-04-10T19:31:54.034Z,15.37
2019-04-10T19:34:25.949Z,17.13
2019-04-10T19:36:58.391Z,16.30
2019-04-10T19:39:30.343Z,17.23
2019-04-10T19:42:02.864Z,13.53
2019-04-10T19:44:35.196Z,16.77
2019-04-10T19:47:08.245Z,14.00
2019-04-10T19:49:41.289Z,15.70
2019-04-10T19:52:14.107Z,12.03
2019-04-10T19:54:47.156Z,11.67
2019-04-10T19:57:19.337Z,11.73
2019-04-10T19:59:52.294Z,16.27
2019-04-10T20:02:24.693Z,11.90
2019-04-10T20:04:56.962Z,13.77
2019-04-10T20:07:29.035Z,13.47
2019-04-10T20:10:02.282Z,11.60
2019-04-10T20:12:34.946Z,16.67
2019-04-10T20:15:06.883Z,20.43
2019-04-10T20:17:38.602Z,12.90
2019-04-10T20:20:11.003Z,14.90
2019-04-10T20:22:43.820Z,15.30
2019-04-10T20:25:16.464Z,14.43
2019-04-10T20:27:48.435Z,15.23
2019-04-10T20:30:22.197Z,13.10
2019-04-10T20:32:56.468Z,13.27
2019-04-10T20:35:28.652Z,12.10
2019-04-10T20:38:01.011Z,14.90
2019-04-10T20:40:33.947Z,15.73
2019-04-10T20:43:06.774Z,13.50
2019-04-10T20:45:39.863Z,15.10
2019-04-10T20:48:12.068Z,12.55
2019-04-10T20:50:44.055Z,11.60
2019-04-10T20:53:15.998Z,12.50
2019-04-10T20:55:48.197Z,14.40
2019-04-10T20:58:20.259Z,12.80
2019-04-10T21:00:51.965Z,12.47
2019-04-10T21:03:25.220Z,13.00
2019-04-10T21:05:58.360Z,14.83
2019-04-10T21:08:30.145Z,13.70
2019-04-10T21:11:01.936Z,13.60
2019-04-10T21:13:34.059Z,13.83
2019-04-10T21:16:07.024Z,12.30
2019-04-10T21:18:39.742Z,10.60
2019-04-10T21:21:12.343Z,11.83
2019-04-10T21:23:44.350Z,13.77
2019-04-10T21:26:16.389Z,16.07
2019-04-10T21:28:48.249Z,15.83
2019-04-10T21:31:38.691Z,15.07
2019-04-10T21:34:32.554Z,13.40
2019-04-10T21:37:04.288Z,15.63
2019-04-10T21:39:36.123Z,12.77
2019-04-10T21:42:14.792Z,12.10
2019-04-10T21:44:41.277Z,11.97
2019-04-10T21:47:13.153Z,16.13
2019-04-10T21:49:44.814Z,11.87
2019-04-10T21:52:16.533Z,12.73
2019-04-10T21:54:52.603Z,13.27
2019-04-10T21:57:22.308Z,15.33
2019-04-10T21:59:54.134Z,14.83
2019-04-10T22:02:26.014Z,14.53
2019-04-10T22:04:59.622Z,12.30
2019-04-10T22:07:48.427Z,18.10
2019-04-10T22:10:34.271Z,19.13
2019-04-10T22:13:05.981Z,13.77
2019-04-10T22:15:43.350Z,11.83
2019-04-10T22:18:16.962Z,14.93
2019-04-10T22:20:49.891Z,13.40
2019-04-10T22:23:22.442Z,13.80
2019-04-10T22:25:54.305Z,13.93
2019-04-10T22:28:26.216Z,17.43
2019-04-10T22:30:58.348Z,27.03
2019-04-10T22:33:30.065Z,14.70
2019-04-10T22:36:01.808Z,11.47
2019-04-10T22:38:33.522Z,13.40
2019-04-10T22:41:17.368Z,13.07
2019-04-10T22:43:38.737Z,11.93
2019-04-10T22:46:10.934Z,12.30
2019-04-10T22:48:43.684Z,11.30
2019-04-10T22:51:15.644Z,15.40
2019-04-10T22:53:47.950Z,11.48
2019-04-10T22:56:20.852Z,15.00
2019-04-10T22:58:53.267Z,12.40
2019-04-10T23:01:25.415Z,12.60
2019-04-10T23:03:57.398Z,10.73
2019-04-10T23:06:29.287Z,14.83
2019-04-10T23:09:02.057Z,11.67
2019-04-10T23:11:41.130Z,10.80
2019-04-10T23:14:07.102Z,9.93
2019-04-10T23:16:40.070Z,14.53
2019-04-10T23:19:12.028Z,9.97
2019-04-10T23:21:43.641Z,10.10
2019-04-10T23:24:16.808Z,12.40
2019-04-10T23:26:49.271Z,10.97
2019-04-10T23:29:20.927Z,13.40
2019-04-10T23:31:52.815Z,9.50
2019-04-10T23:34:25.085Z,10.43
2019-04-10T23:36:56.882Z,10.83
2019-04-10T23:39:28.495Z,11.13
2019-04-10T23:42:01.141Z,10.93
2019-04-10T23:44:33.175Z,10.73
2019-04-10T23:47:06.036Z,10.17
2019-04-10T23:49:37.675Z,10.37
2019-04-10T23:52:09.695Z,9.40
2019-04-10T23:54:41.629Z,9.57
2019-04-10T23:57:13.587Z,14.53
2019-04-10T23:59:46.736Z,11.70
